Nuuk Airport

KL  EN  DA
ASIAQ
Weather Now GREENLAND SURVEY
Updated [WGT/WGST] Temperature [°C] Wind [m/s] Air pressure [hPa] Relative humidity [%] Precipitation [mm]
Present Wind chill Speed Max
18.04 00:00-9,6-17,45,6 ⇐7,41007490,0
17.04 23:00-10,2-18,66,3 ⇐8,31007550,0
17.04 22:00-9,9-17,95,8 ⇐7,11007510,0
17.04 21:00-10,1-18,36,0 ⇐7,41006570,0
17.04 20:00-9,3-16,95,5 ⇐7,01006510,0
17.04 19:00-8,1-15,35,4 ⇐6,61006510,0
17.04 18:00-7,8-12,93,0 ⇐4,21006480,0
17.04 17:00-6,9-11,83,0 ⇐4,21005480,0
17.04 16:00-6,5-11,73,4 ⇐4,61005460,0
17.04 15:00-6,4-11,02,8 ⇐3,71004470,0
17.04 14:00-7,3-13,23,9 ⇖5,31004530,0
17.04 13:00-7,3-13,23,9 ⇐4,81004540,0
17.04 12:00-8,7-14,53,5 ⇐4,61003610,0
17.04 11:00-9,3-14,22,6 ⇙3,81003770,1
17.04 10:00-9,4-13,62,1 ⇐2,41003720,0
17.04 09:00-9,60,01,1 ⇖1,51002700,0
17.04 08:00-11,2-15,52,0 ⇐2,81002780,0
17.04 07:00-10,6-16,23,0 ⇓4,11001760,0
17.04 06:00-11,10,01,0 ⇖1,31001750,0
17.04 05:00-11,20,01,0 ⇖1,21001850,0
17.04 04:00-10,9-14,21,5 ⇖1,91000770,0
17.04 03:00-11,2-14,91,7 ⇖2,01000690,0
17.04 02:00-11,70,01,3 ⇖1,6999660,0
17.04 01:00-11,3-15,82,1 ⇖3,0999600,0
17.04 00:00-10,80,00,1 ⇓1,0999670,1
Position: (64.2,-51.683333)

[Back]